sensor_id;sensor_type;location;lat;lon;timestamp;pressure;altitude;pressure_sealevel;temperature;humidity
15914;BME280;8055;51.930;8.840;2023-02-13T00:00:18;78250.59;;;-145.72;100.00
15914;BME280;8055;51.930;8.840;2023-02-13T00:02:44;78252.66;;;-145.72;100.00
15914;BME280;8055;51.930;8.840;2023-02-13T00:05:10;78256.81;;;-145.72;100.00
15914;BME280;8055;51.930;8.840;2023-02-13T00:07:35;78254.75;;;-145.72;100.00
15914;BME280;8055;51.930;8.840;2023-02-13T00:10:00;78256.81;;;-145.72;100.00
15914;BME280;8055;51.930;8.840;2023-02-13T00:12:26;78258.88;;;-145.72;100.00
15914;BME280;8055;51.930;8.840;2023-02-13T00:14:51;78260.94;;;-145.72;100.00
15914;BME280;8055;51.930;8.840;2023-02-13T00:17:18;78260.94;;;-145.72;100.00
15914;BME280;8055;51.930;8.840;2023-02-13T00:19:43;78256.81;;;-145.72;100.00
15914;BME280;8055;51.930;8.840;2023-02-13T00:22:08;78267.16;;;-145.72;100.00
15914;BME280;8055;51.930;8.840;2023-02-13T00:24:34;78263.03;;;-145.72;100.00
15914;BME280;8055;51.930;8.840;2023-02-13T00:26:59;78263.03;;;-145.72;100.00
15914;BME280;8055;51.930;8.840;2023-02-13T00:29:25;78260.94;;;-145.72;100.00
15914;BME280;8055;51.930;8.840;2023-02-13T00:31:50;78265.09;;;-145.72;100.00
15914;BME280;8055;51.930;8.840;2023-02-13T00:34:15;78271.31;;;-145.72;100.00
15914;BME280;8055;51.930;8.840;2023-02-13T00:36:41;78269.22;;;-145.72;100.00
15914;BME280;8055;51.930;8.840;2023-02-13T00:39:07;78269.22;;;-145.72;100.00
15914;BME280;8055;51.930;8.840;2023-02-13T00:41:35;78265.09;;;-145.72;100.00
15914;BME280;8055;51.930;8.840;2023-02-13T00:44:00;78265.09;;;-145.72;100.00
15914;BME280;8055;51.930;8.840;2023-02-13T00:46:25;78263.03;;;-145.72;100.00
15914;BME280;8055;51.930;8.840;2023-02-13T00:48:51;78263.03;;;-145.72;100.00
15914;BME280;8055;51.930;8.840;2023-02-13T00:51:16;78267.16;;;-145.72;100.00
15914;BME280;8055;51.930;8.840;2023-02-13T00:53:42;78263.03;;;-145.72;100.00
15914;BME280;8055;51.930;8.840;2023-02-13T00:56:32;78248.53;;;-145.72;100.00
15914;BME280;8055;51.930;8.840;2023-02-13T00:58:57;78254.75;;;-145.72;100.00
15914;BME280;8055;51.930;8.840;2023-02-13T01:01:23;78254.75;;;-145.72;100.00
15914;BME280;8055;51.930;8.840;2023-02-13T01:03:48;78254.75;;;-145.72;100.00
15914;BME280;8055;51.930;8.840;2023-02-13T01:06:13;78258.88;;;-145.72;100.00
15914;BME280;8055;51.930;8.840;2023-02-13T01:08:40;78256.81;;;-145.72;100.00
15914;BME280;8055;51.930;8.840;2023-02-13T01:11:06;78263.03;;;-145.72;100.00
15914;BME280;8055;51.930;8.840;2023-02-13T01:13:32;78258.88;;;-145.72;100.00
15914;BME280;8055;51.930;8.840;2023-02-13T01:15:57;78265.09;;;-145.72;100.00
15914;BME280;8055;51.930;8.840;2023-02-13T01:18:22;78256.81;;;-145.72;100.00
15914;BME280;8055;51.930;8.840;2023-02-13T01:20:57;78256.81;;;-145.72;100.00
15914;BME280;8055;51.930;8.840;2023-02-13T01:23:22;78263.03;;;-145.72;100.00
15914;BME280;8055;51.930;8.840;2023-02-13T01:25:48;78267.16;;;-145.72;100.00
15914;BME280;8055;51.930;8.840;2023-02-13T01:28:16;78260.94;;;-145.72;100.00
15914;BME280;8055;51.930;8.840;2023-02-13T01:30:41;78267.16;;;-145.72;100.00
15914;BME280;8055;51.930;8.840;2023-02-13T01:33:08;78271.31;;;-145.72;100.00
15914;BME280;8055;51.930;8.840;2023-02-13T01:35:34;78258.88;;;-145.72;100.00
15914;BME280;8055;51.930;8.840;2023-02-13T01:37:59;78260.94;;;-145.72;100.00
15914;BME280;8055;51.930;8.840;2023-02-13T01:40:24;78260.94;;;-145.72;100.00
15914;BME280;8055;51.930;8.840;2023-02-13T01:42:54;78258.88;;;-145.72;100.00
15914;BME280;8055;51.930;8.840;2023-02-13T01:45:29;78263.03;;;-145.72;100.00
15914;BME280;8055;51.930;8.840;2023-02-13T01:50:48;78254.75;;;-145.72;100.00
15914;BME280;8055;51.930;8.840;2023-02-13T01:53:24;78256.81;;;-145.72;100.00
15914;BME280;8055;51.930;8.840;2023-02-13T01:55:58;78254.75;;;-145.72;100.00
15914;BME280;8055;51.930;8.840;2023-02-13T01:58:28;78256.81;;;-145.72;100.00
15914;BME280;8055;51.930;8.840;2023-02-13T02:00:56;78252.66;;;-145.72;100.00
15914;BME280;8055;51.930;8.840;2023-02-13T02:03:51;78250.59;;;-145.72;100.00
15914;BME280;8055;51.930;8.840;2023-02-13T02:06:23;78242.31;;;-145.72;100.00
15914;BME280;8055;51.930;8.840;2023-02-13T02:08:50;78244.38;;;-145.72;100.00
15914;BME280;8055;51.930;8.840;2023-02-13T02:11:30;78250.59;;;-145.72;100.00
15914;BME280;8055;51.930;8.840;2023-02-13T02:14:00;78252.66;;;-145.72;100.00
15914;BME280;8055;51.930;8.840;2023-02-13T02:16:26;78248.53;;;-145.72;100.00
15914;BME280;8055;51.930;8.840;2023-02-13T02:18:51;78250.59;;;-145.72;100.00
15914;BME280;8055;51.930;8.840;2023-02-13T02:21:48;78246.47;;;-145.72;100.00
15914;BME280;8055;51.930;8.840;2023-02-13T02:24:57;78246.47;;;-145.72;100.00
15914;BME280;8055;51.930;8.840;2023-02-13T02:27:39;78246.47;;;-145.72;100.00
15914;BME280;8055;51.930;8.840;2023-02-13T02:30:35;78252.66;;;-145.72;100.00
15914;BME280;8055;51.930;8.840;2023-02-13T02:33:23;78250.59;;;-145.72;100.00
15914;BME280;8055;51.930;8.840;2023-02-13T02:36:04;78258.88;;;-145.72;100.00
15914;BME280;8055;51.930;8.840;2023-02-13T02:38:59;78252.66;;;-145.72;100.00
15914;BME280;8055;51.930;8.840;2023-02-13T02:42:09;78254.75;;;-145.72;100.00
15914;BME280;8055;51.930;8.840;2023-02-13T02:44:35;78248.53;;;-145.72;100.00
15914;BME280;8055;51.930;8.840;2023-02-13T02:53:17;78248.53;;;-145.72;100.00
15914;BME280;8055;51.930;8.840;2023-02-13T02:58:43;78250.59;;;-145.72;100.00
15914;BME280;8055;51.930;8.840;2023-02-13T03:01:31;78252.66;;;-145.72;100.00
15914;BME280;8055;51.930;8.840;2023-02-13T03:04:24;78250.59;;;-145.72;100.00
15914;BME280;8055;51.930;8.840;2023-02-13T03:07:14;78244.38;;;-145.72;100.00
15914;BME280;8055;51.930;8.840;2023-02-13T03:09:43;78234.03;;;-145.72;100.00
15914;BME280;8055;51.930;8.840;2023-02-13T03:12:35;78236.09;;;-145.72;100.00
15914;BME280;8055;51.930;8.840;2023-02-13T03:15:22;78240.25;;;-145.72;100.00
15914;BME280;8055;51.930;8.840;2023-02-13T03:17:49;78238.19;;;-145.72;100.00
15914;BME280;8055;51.930;8.840;2023-02-13T03:20:45;78234.03;;;-145.72;100.00
15914;BME280;8055;51.930;8.840;2023-02-13T03:26:25;78250.59;;;-145.72;100.00
15914;BME280;8055;51.930;8.840;2023-02-13T03:29:05;78258.88;;;-145.72;100.00
15914;BME280;8055;51.930;8.840;2023-02-13T03:34:59;78248.53;;;-145.72;100.00
15914;BME280;8055;51.930;8.840;2023-02-13T03:37:49;78260.94;;;-145.72;100.00
15914;BME280;8055;51.930;8.840;2023-02-13T03:40:43;78263.03;;;-145.72;100.00
15914;BME280;8055;51.930;8.840;2023-02-13T03:44:00;78260.94;;;-145.72;100.00
15914;BME280;8055;51.930;8.840;2023-02-13T03:46:23;78260.94;;;-145.72;100.00
15914;BME280;8055;51.930;8.840;2023-02-13T03:48:51;78269.22;;;-145.72;100.00
15914;BME280;8055;51.930;8.840;2023-02-13T03:51:42;78271.31;;;-145.72;100.00
15914;BME280;8055;51.930;8.840;2023-02-13T03:54:47;78275.44;;;-145.72;100.00
15914;BME280;8055;51.930;8.840;2023-02-13T03:57:36;78275.44;;;-145.72;100.00
15914;BME280;8055;51.930;8.840;2023-02-13T04:00:24;78275.44;;;-145.72;100.00
15914;BME280;8055;51.930;8.840;2023-02-13T04:03:07;78277.50;;;-145.72;100.00
15914;BME280;8055;51.930;8.840;2023-02-13T04:05:40;78279.59;;;-145.72;100.00
15914;BME280;8055;51.930;8.840;2023-02-13T04:08:07;78275.44;;;-145.72;100.00
15914;BME280;8055;51.930;8.840;2023-02-13T04:10:36;78277.50;;;-145.72;100.00
15914;BME280;8055;51.930;8.840;2023-02-13T04:15:56;78279.59;;;-145.72;100.00
15914;BME280;8055;51.930;8.840;2023-02-13T04:18:26;78285.78;;;-145.72;100.00
15914;BME280;8055;51.930;8.840;2023-02-13T04:20:53;78281.66;;;-145.72;100.00
15914;BME280;8055;51.930;8.840;2023-02-13T04:23:18;78281.66;;;-145.72;100.00
15914;BME280;8055;51.930;8.840;2023-02-13T04:25:47;78283.72;;;-145.72;100.00
15914;BME280;8055;51.930;8.840;2023-02-13T04:28:14;78287.88;;;-145.72;100.00
15914;BME280;8055;51.930;8.840;2023-02-13T04:30:40;78285.78;;;-145.72;100.00
15914;BME280;8055;51.930;8.840;2023-02-13T04:33:05;78289.94;;;-145.72;100.00
15914;BME280;8055;51.930;8.840;2023-02-13T04:35:31;78289.94;;;-145.72;100.00
15914;BME280;8055;51.930;8.840;2023-02-13T04:37:56;78292.00;;;-145.72;100.00
15914;BME280;8055;51.930;8.840;2023-02-13T04:40:21;78283.72;;;-145.72;100.00
15914;BME280;8055;51.930;8.840;2023-02-13T04:42:47;78285.78;;;-145.72;100.00
15914;BME280;8055;51.930;8.840;2023-02-13T04:45:13;78279.59;;;-145.72;100.00
15914;BME280;8055;51.930;8.840;2023-02-13T04:47:39;78283.72;;;-145.72;100.00
15914;BME280;8055;51.930;8.840;2023-02-13T04:50:05;78285.78;;;-145.72;100.00
15914;BME280;8055;51.930;8.840;2023-02-13T04:52:30;78287.88;;;-145.72;100.00
15914;BME280;8055;51.930;8.840;2023-02-13T04:54:55;78281.66;;;-145.72;100.00
15914;BME280;8055;51.930;8.840;2023-02-13T04:57:21;78271.31;;;-145.72;100.00
15914;BME280;8055;51.930;8.840;2023-02-13T04:59:46;78277.50;;;-145.72;100.00
15914;BME280;8055;51.930;8.840;2023-02-13T05:02:11;78275.44;;;-145.72;100.00
15914;BME280;8055;51.930;8.840;2023-02-13T05:04:37;78275.44;;;-145.72;100.00
15914;BME280;8055;51.930;8.840;2023-02-13T05:07:02;78271.31;;;-145.72;100.00
15914;BME280;8055;51.930;8.840;2023-02-13T05:09:27;78271.31;;;-145.72;100.00
15914;BME280;8055;51.930;8.840;2023-02-13T05:11:53;78271.31;;;-145.72;100.00
15914;BME280;8055;51.930;8.840;2023-02-13T05:14:19;78267.16;;;-145.72;100.00
15914;BME280;8055;51.930;8.840;2023-02-13T05:16:45;78269.22;;;-145.72;100.00
15914;BME280;8055;51.930;8.840;2023-02-13T05:19:10;78269.22;;;-145.72;100.00
15914;BME280;8055;51.930;8.840;2023-02-13T05:21:36;78269.22;;;-145.72;100.00
15914;BME280;8055;51.930;8.840;2023-02-13T05:24:20;78271.31;;;-145.72;100.00
15914;BME280;8055;51.930;8.840;2023-02-13T05:26:45;78271.31;;;-145.72;100.00
15914;BME280;8055;51.930;8.840;2023-02-13T05:29:10;78271.31;;;-145.72;100.00
15914;BME280;8055;51.930;8.840;2023-02-13T05:31:54;78275.44;;;-145.72;100.00
15914;BME280;8055;51.930;8.840;2023-02-13T05:34:21;78279.59;;;-145.72;100.00
15914;BME280;8055;51.930;8.840;2023-02-13T05:36:48;78279.59;;;-145.72;100.00
15914;BME280;8055;51.930;8.840;2023-02-13T05:39:13;78281.66;;;-145.72;100.00
15914;BME280;8055;51.930;8.840;2023-02-13T05:41:40;78283.72;;;-145.72;100.00
15914;BME280;8055;51.930;8.840;2023-02-13T05:44:05;78287.88;;;-145.72;100.00
15914;BME280;8055;51.930;8.840;2023-02-13T05:46:30;78281.66;;;-145.72;100.00
15914;BME280;8055;51.930;8.840;2023-02-13T05:48:56;78275.44;;;-145.72;100.00
15914;BME280;8055;51.930;8.840;2023-02-13T05:51:21;78275.44;;;-145.72;100.00
15914;BME280;8055;51.930;8.840;2023-02-13T05:53:47;78277.50;;;-145.72;100.00
15914;BME280;8055;51.930;8.840;2023-02-13T05:56:12;78279.59;;;-145.72;100.00
15914;BME280;8055;51.930;8.840;2023-02-13T05:58:37;78273.38;;;-145.72;100.00
15914;BME280;8055;51.930;8.840;2023-02-13T06:01:03;78279.59;;;-145.72;100.00
15914;BME280;8055;51.930;8.840;2023-02-13T06:03:30;78283.72;;;-145.72;100.00
15914;BME280;8055;51.930;8.840;2023-02-13T06:05:56;78283.72;;;-145.72;100.00
15914;BME280;8055;51.930;8.840;2023-02-13T06:08:23;78287.88;;;-145.72;100.00
15914;BME280;8055;51.930;8.840;2023-02-13T06:10:49;78289.94;;;-145.72;100.00
15914;BME280;8055;51.930;8.840;2023-02-13T06:13:16;78285.78;;;-145.72;100.00
15914;BME280;8055;51.930;8.840;2023-02-13T06:15:41;78287.88;;;-145.72;100.00
15914;BME280;8055;51.930;8.840;2023-02-13T06:18:07;78292.00;;;-145.72;100.00
15914;BME280;8055;51.930;8.840;2023-02-13T06:20:33;78292.00;;;-145.72;100.00
15914;BME280;8055;51.930;8.840;2023-02-13T06:22:59;78296.16;;;-145.72;100.00
15914;BME280;8055;51.930;8.840;2023-02-13T06:25:24;78298.22;;;-145.72;100.00
15914;BME280;8055;51.930;8.840;2023-02-13T06:27:50;78298.22;;;-145.72;100.00
15914;BME280;8055;51.930;8.840;2023-02-13T06:30:16;78296.16;;;-145.72;100.00
15914;BME280;8055;51.930;8.840;2023-02-13T06:32:42;78300.28;;;-145.72;100.00
15914;BME280;8055;51.930;8.840;2023-02-13T06:35:08;78304.44;;;-145.72;100.00
15914;BME280;8055;51.930;8.840;2023-02-13T06:37:33;78306.50;;;-145.72;100.00
15914;BME280;8055;51.930;8.840;2023-02-13T06:39:59;78306.50;;;-145.72;100.00
15914;BME280;8055;51.930;8.840;2023-02-13T06:42:24;78310.63;;;-145.72;100.00
15914;BME280;8055;51.930;8.840;2023-02-13T06:44:50;78310.63;;;-145.72;100.00
15914;BME280;8055;51.930;8.840;2023-02-13T06:47:15;78316.84;;;-145.72;100.00
15914;BME280;8055;51.930;8.840;2023-02-13T06:49:40;78316.84;;;-145.72;100.00
15914;BME280;8055;51.930;8.840;2023-02-13T06:52:06;78312.72;;;-145.72;100.00
15914;BME280;8055;51.930;8.840;2023-02-13T06:54:31;78321.00;;;-145.72;100.00
15914;BME280;8055;51.930;8.840;2023-02-13T06:56:57;78323.06;;;-145.72;100.00
15914;BME280;8055;51.930;8.840;2023-02-13T06:59:22;78327.22;;;-145.72;100.00
15914;BME280;8055;51.930;8.840;2023-02-13T07:01:47;78331.34;;;-145.72;100.00
15914;BME280;8055;51.930;8.840;2023-02-13T07:04:13;78329.28;;;-145.72;100.00
15914;BME280;8055;51.930;8.840;2023-02-13T07:06:38;78339.63;;;-145.72;100.00
15914;BME280;8055;51.930;8.840;2023-02-13T07:09:03;78339.63;;;-145.72;100.00
15914;BME280;8055;51.930;8.840;2023-02-13T07:11:29;78337.56;;;-145.72;100.00
15914;BME280;8055;51.930;8.840;2023-02-13T07:13:55;78343.78;;;-145.72;100.00
15914;BME280;8055;51.930;8.840;2023-02-13T07:16:20;78335.50;;;-145.72;100.00
15914;BME280;8055;51.930;8.840;2023-02-13T07:18:45;78341.69;;;-145.72;100.00
15914;BME280;8055;51.930;8.840;2023-02-13T07:21:11;78343.78;;;-145.72;100.00
15914;BME280;8055;51.930;8.840;2023-02-13T07:23:36;78337.56;;;-145.72;100.00
15914;BME280;8055;51.930;8.840;2023-02-13T07:26:03;78341.69;;;-145.72;100.00
15914;BME280;8055;51.930;8.840;2023-02-13T07:28:29;78337.56;;;-145.72;100.00
15914;BME280;8055;51.930;8.840;2023-02-13T07:30:55;78335.50;;;-145.72;100.00
15914;BME280;8055;51.930;8.840;2023-02-13T07:33:21;78339.63;;;-145.72;100.00
15914;BME280;8055;51.930;8.840;2023-02-13T07:35:47;78341.69;;;-145.72;100.00
15914;BME280;8055;51.930;8.840;2023-02-13T07:38:13;78341.69;;;-145.72;100.00
15914;BME280;8055;51.930;8.840;2023-02-13T07:40:38;78333.41;;;-145.72;100.00
15914;BME280;8055;51.930;8.840;2023-02-13T07:43:04;78335.50;;;-145.72;100.00
15914;BME280;8055;51.930;8.840;2023-02-13T07:45:29;78335.50;;;-145.72;100.00
15914;BME280;8055;51.930;8.840;2023-02-13T07:47:55;78345.84;;;-145.72;100.00
15914;BME280;8055;51.930;8.840;2023-02-13T07:50:21;78339.63;;;-145.72;100.00
15914;BME280;8055;51.930;8.840;2023-02-13T07:52:57;78333.41;;;-145.72;100.00
15914;BME280;8055;51.930;8.840;2023-02-13T07:55:23;78335.50;;;-145.72;100.00
15914;BME280;8055;51.930;8.840;2023-02-13T07:57:48;78339.63;;;-145.72;100.00
15914;BME280;8055;51.930;8.840;2023-02-13T08:00:14;78333.41;;;-145.72;100.00
15914;BME280;8055;51.930;8.840;2023-02-13T08:02:40;78331.34;;;-145.72;100.00
15914;BME280;8055;51.930;8.840;2023-02-13T08:05:06;78333.41;;;-145.72;100.00
15914;BME280;8055;51.930;8.840;2023-02-13T08:07:32;78333.41;;;-145.72;100.00
15914;BME280;8055;51.930;8.840;2023-02-13T08:09:57;78331.34;;;-145.72;100.00
15914;BME280;8055;51.930;8.840;2023-02-13T08:12:41;78329.28;;;-145.72;100.00
15914;BME280;8055;51.930;8.840;2023-02-13T08:15:10;78327.22;;;-145.72;100.00
15914;BME280;8055;51.930;8.840;2023-02-13T08:17:36;78316.84;;;-145.72;100.00
15914;BME280;8055;51.930;8.840;2023-02-13T08:20:01;78321.00;;;-145.72;100.00
15914;BME280;8055;51.930;8.840;2023-02-13T08:22:27;78310.63;;;-145.72;100.00
15914;BME280;8055;51.930;8.840;2023-02-13T08:24:52;78304.44;;;-145.72;100.00
15914;BME280;8055;51.930;8.840;2023-02-13T08:27:18;78304.44;;;-145.72;100.00
15914;BME280;8055;51.930;8.840;2023-02-13T08:29:43;78298.22;;;-145.72;100.00
15914;BME280;8055;51.930;8.840;2023-02-13T08:32:09;78296.16;;;-145.72;100.00
15914;BME280;8055;51.930;8.840;2023-02-13T08:34:34;78289.94;;;-145.72;100.00
15914;BME280;8055;51.930;8.840;2023-02-13T08:37:00;78285.78;;;-145.72;100.00
15914;BME280;8055;51.930;8.840;2023-02-13T08:39:26;78292.00;;;-145.72;100.00
15914;BME280;8055;51.930;8.840;2023-02-13T08:41:51;78287.88;;;-145.72;100.00
15914;BME280;8055;51.930;8.840;2023-02-13T08:44:16;78283.72;;;-145.72;100.00
15914;BME280;8055;51.930;8.840;2023-02-13T08:46:42;78279.59;;;-145.72;100.00
15914;BME280;8055;51.930;8.840;2023-02-13T08:49:07;78281.66;;;-145.72;100.00
15914;BME280;8055;51.930;8.840;2023-02-13T08:51:33;78277.50;;;-145.72;100.00
15914;BME280;8055;51.930;8.840;2023-02-13T08:53:58;78275.44;;;-145.72;100.00
15914;BME280;8055;51.930;8.840;2023-02-13T08:56:23;78267.16;;;-145.72;100.00
15914;BME280;8055;51.930;8.840;2023-02-13T08:58:49;78265.09;;;-145.72;100.00
15914;BME280;8055;51.930;8.840;2023-02-13T09:01:15;78252.66;;;-145.72;100.00
15914;BME280;8055;51.930;8.840;2023-02-13T09:03:40;78250.59;;;-145.72;100.00
15914;BME280;8055;51.930;8.840;2023-02-13T09:06:06;78248.53;;;-145.72;100.00
15914;BME280;8055;51.930;8.840;2023-02-13T09:08:34;78246.47;;;-145.72;100.00
15914;BME280;8055;51.930;8.840;2023-02-13T09:11:01;78242.31;;;-145.72;100.00
15914;BME280;8055;51.930;8.840;2023-02-13T09:13:29;78238.19;;;-145.72;100.00
15914;BME280;8055;51.930;8.840;2023-02-13T09:15:58;78227.81;;;-145.72;100.00
15914;BME280;8055;51.930;8.840;2023-02-13T09:18:24;78225.75;;;-145.72;100.00
15914;BME280;8055;51.930;8.840;2023-02-13T09:20:49;78227.81;;;-145.72;100.00
15914;BME280;8055;51.930;8.840;2023-02-13T09:23:14;78227.81;;;-145.72;100.00
15914;BME280;8055;51.930;8.840;2023-02-13T09:25:40;78229.91;;;-145.72;100.00
15914;BME280;8055;51.930;8.840;2023-02-13T09:28:05;78229.91;;;-145.72;100.00
15914;BME280;8055;51.930;8.840;2023-02-13T09:30:31;78217.47;;;-145.72;100.00
15914;BME280;8055;51.930;8.840;2023-02-13T09:32:56;78219.53;;;-145.72;100.00
15914;BME280;8055;51.930;8.840;2023-02-13T09:35:22;78205.03;;;-145.72;100.00
15914;BME280;8055;51.930;8.840;2023-02-13T09:37:48;78200.91;;;-145.72;100.00
15914;BME280;8055;51.930;8.840;2023-02-13T09:40:27;78200.91;;;-145.72;100.00
15914;BME280;8055;51.930;8.840;2023-02-13T09:43:04;78202.97;;;-145.72;100.00
15914;BME280;8055;51.930;8.840;2023-02-13T09:45:31;78198.84;;;-145.72;100.00
15914;BME280;8055;51.930;8.840;2023-02-13T09:47:57;78188.47;;;-145.72;100.00
15914;BME280;8055;51.930;8.840;2023-02-13T09:52:52;78198.84;;;-145.72;100.00
15914;BME280;8055;51.930;8.840;2023-02-13T09:55:21;78196.75;;;-145.72;100.00
15914;BME280;8055;51.930;8.840;2023-02-13T10:00:48;78200.91;;;-145.72;100.00
15914;BME280;8055;51.930;8.840;2023-02-13T10:03:27;78190.56;;;-145.72;100.00
15914;BME280;8055;51.930;8.840;2023-02-13T10:06:23;78180.19;;;-145.72;100.00
15914;BME280;8055;51.930;8.840;2023-02-13T10:08:59;78176.06;;;-145.72;100.00
15914;BME280;8055;51.930;8.840;2023-02-13T10:14:03;78167.78;;;-145.72;100.00
15914;BME280;8055;51.930;8.840;2023-02-13T10:16:34;78167.78;;;-145.72;100.00
15914;BME280;8055;51.930;8.840;2023-02-13T10:19:24;78174.00;;;-145.72;100.00
15914;BME280;8055;51.930;8.840;2023-02-13T10:21:58;78171.91;;;-145.72;100.00
15914;BME280;8055;51.930;8.840;2023-02-13T10:24:43;78161.56;;;-145.72;100.00
15914;BME280;8055;51.930;8.840;2023-02-13T10:27:33;78159.50;;;-145.72;100.00
15914;BME280;8055;51.930;8.840;2023-02-13T10:30:06;78163.63;;;-145.72;100.00
15914;BME280;8055;51.930;8.840;2023-02-13T10:35:34;78155.34;;;-145.72;100.00
15914;BME280;8055;51.930;8.840;2023-02-13T10:38:10;78153.28;;;-145.72;100.00
15914;BME280;8055;51.930;8.840;2023-02-13T10:40:39;78155.34;;;-145.72;100.00
15914;BME280;8055;51.930;8.840;2023-02-13T10:43:09;78151.22;;;-145.72;100.00
15914;BME280;8055;51.930;8.840;2023-02-13T10:50:50;78140.84;;;-145.72;100.00
15914;BME280;8055;51.930;8.840;2023-02-13T10:56:22;78118.09;;;-145.72;100.00
15914;BME280;8055;51.930;8.840;2023-02-13T10:59:05;78122.22;;;-145.72;100.00
15914;BME280;8055;51.930;8.840;2023-02-13T11:01:48;78113.94;;;-145.72;100.00
15914;BME280;8055;51.930;8.840;2023-02-13T11:04:17;78113.94;;;-145.72;100.00
15914;BME280;8055;51.930;8.840;2023-02-13T11:06:54;78097.38;;;-145.72;100.00
15914;BME280;8055;51.930;8.840;2023-02-13T11:09:20;78087.03;;;-145.72;100.00
15914;BME280;8055;51.930;8.840;2023-02-13T11:11:46;78089.09;;;-145.72;100.00
15914;BME280;8055;51.930;8.840;2023-02-13T11:14:15;78091.16;;;-145.72;100.00
15914;BME280;8055;51.930;8.840;2023-02-13T11:17:00;78070.47;;;-145.72;100.00
15914;BME280;8055;51.930;8.840;2023-02-13T11:19:48;78072.53;;;-145.72;100.00
15914;BME280;8055;51.930;8.840;2023-02-13T11:22:28;78070.47;;;-145.72;100.00
15914;BME280;8055;51.930;8.840;2023-02-13T11:24:57;78053.91;;;-145.72;100.00
15914;BME280;8055;51.930;8.840;2023-02-13T11:27:32;78051.84;;;-145.72;100.00
15914;BME280;8055;51.930;8.840;2023-02-13T11:33:08;78055.97;;;-145.72;100.00
15914;BME280;8055;51.930;8.840;2023-02-13T11:35:45;78055.97;;;-145.72;100.00
15914;BME280;8055;51.930;8.840;2023-02-13T11:40:40;78060.13;;;-145.72;100.00
15914;BME280;8055;51.930;8.840;2023-02-13T11:43:17;78043.56;;;-145.72;100.00
15914;BME280;8055;51.930;8.840;2023-02-13T11:45:43;78053.91;;;-145.72;100.00
15914;BME280;8055;51.930;8.840;2023-02-13T11:48:18;78047.69;;;-145.72;100.00
15914;BME280;8055;51.930;8.840;2023-02-13T11:50:50;78027.00;;;-145.72;100.00
15914;BME280;8055;51.930;8.840;2023-02-13T11:53:21;78018.72;;;-145.72;100.00
15914;BME280;8055;51.930;8.840;2023-02-13T11:56:05;78016.63;;;-145.72;100.00
15914;BME280;8055;51.930;8.840;2023-02-13T11:58:31;78027.00;;;-145.72;100.00
15914;BME280;8055;51.930;8.840;2023-02-13T12:01:23;78008.34;;;-145.72;100.00
15914;BME280;8055;51.930;8.840;2023-02-13T12:07:11;77998.00;;;-145.72;100.00
15914;BME280;8055;51.930;8.840;2023-02-13T12:09:39;78010.44;;;-145.72;100.00
15914;BME280;8055;51.930;8.840;2023-02-13T12:12:05;78002.16;;;-145.72;100.00
15914;BME280;8055;51.930;8.840;2023-02-13T12:14:42;77998.00;;;-145.72;100.00
15914;BME280;8055;51.930;8.840;2023-02-13T12:17:21;77998.00;;;-145.72;100.00
15914;BME280;8055;51.930;8.840;2023-02-13T12:19:48;78002.16;;;-145.72;100.00
15914;BME280;8055;51.930;8.840;2023-02-13T12:22:31;77979.38;;;-145.72;100.00
15914;BME280;8055;51.930;8.840;2023-02-13T12:36:20;77958.66;;;-145.72;100.00
15914;BME280;8055;51.930;8.840;2023-02-13T12:39:03;77960.72;;;-145.72;100.00
15914;BME280;8055;51.930;8.840;2023-02-13T12:42:14;77964.88;;;-145.72;100.00
15914;BME280;8055;51.930;8.840;2023-02-13T12:47:22;77981.44;;;-145.72;100.00
15914;BME280;8055;51.930;8.840;2023-02-13T12:49:56;77973.16;;;-145.72;100.00
15914;BME280;8055;51.930;8.840;2023-02-13T12:52:53;77950.38;;;-145.72;100.00
15914;BME280;8055;51.930;8.840;2023-02-13T12:55:41;77931.75;;;-145.72;100.00
15914;BME280;8055;51.930;8.840;2023-02-13T13:11:56;77915.19;;;-145.72;100.00
15914;BME280;8055;51.930;8.840;2023-02-13T13:20:46;77913.13;;;-145.72;100.00
15914;BME280;8055;51.930;8.840;2023-02-13T13:23:19;77894.47;;;-145.72;100.00
15914;BME280;8055;51.930;8.840;2023-02-13T13:28:19;77842.72;;;-145.72;100.00
15914;BME280;8055;51.930;8.840;2023-02-13T13:30:47;77844.78;;;-145.72;100.00
15914;BME280;8055;51.930;8.840;2023-02-13T13:33:15;77851.00;;;-145.72;100.00
15914;BME280;8055;51.930;8.840;2023-02-13T13:35:46;77875.84;;;-145.72;100.00
15914;BME280;8055;51.930;8.840;2023-02-13T13:38:34;77882.06;;;-145.72;100.00
15914;BME280;8055;51.930;8.840;2023-02-13T13:41:38;77890.34;;;-145.72;100.00
15914;BME280;8055;51.930;8.840;2023-02-13T13:44:25;77886.19;;;-145.72;100.00
15914;BME280;8055;51.930;8.840;2023-02-13T13:46:59;77894.47;;;-145.72;100.00
15914;BME280;8055;51.930;8.840;2023-02-13T13:49:47;77902.75;;;-145.72;100.00
15914;BME280;8055;51.930;8.840;2023-02-13T13:52:29;77908.97;;;-145.72;100.00
15914;BME280;8055;51.930;8.840;2023-02-13T13:54:57;77913.13;;;-145.72;100.00
15914;BME280;8055;51.930;8.840;2023-02-13T14:07:50;77908.97;;;-145.72;100.00
15914;BME280;8055;51.930;8.840;2023-02-13T14:23:36;77898.63;;;-145.72;100.00
15914;BME280;8055;51.930;8.840;2023-02-13T14:28:54;77898.63;;;-145.72;100.00
15914;BME280;8055;51.930;8.840;2023-02-13T14:31:25;77896.56;;;-145.72;100.00
15914;BME280;8055;51.930;8.840;2023-02-13T14:34:21;77900.69;;;-145.72;100.00
15914;BME280;8055;51.930;8.840;2023-02-13T14:39:34;77898.63;;;-145.72;100.00
15914;BME280;8055;51.930;8.840;2023-02-13T14:42:01;77898.63;;;-145.72;100.00
15914;BME280;8055;51.930;8.840;2023-02-13T14:44:34;77900.69;;;-145.72;100.00
15914;BME280;8055;51.930;8.840;2023-02-13T14:47:10;77906.91;;;-145.72;100.00
15914;BME280;8055;51.930;8.840;2023-02-13T14:49:39;77900.69;;;-145.72;100.00
15914;BME280;8055;51.930;8.840;2023-02-13T14:52:15;77904.84;;;-145.72;100.00
15914;BME280;8055;51.930;8.840;2023-02-13T14:54:48;77904.84;;;-145.72;100.00